sensor_id;sensor_type;location;lat;lon;timestamp;P1;durP1;ratioP1;P2;durP2;ratioP2
68583;SDS011;55557;49.220;11.150;2023-04-15T00:00:41;4.63;;;3.37;;
68583;SDS011;55557;49.220;11.150;2023-04-15T00:03:07;3.53;;;3.10;;
68583;SDS011;55557;49.220;11.150;2023-04-15T00:05:33;6.13;;;3.23;;
68583;SDS011;55557;49.220;11.150;2023-04-15T00:07:59;7.90;;;3.50;;
68583;SDS011;55557;49.220;11.150;2023-04-15T00:10:26;6.83;;;4.23;;
68583;SDS011;55557;49.220;11.150;2023-04-15T00:12:52;4.93;;;4.00;;
68583;SDS011;55557;49.220;11.150;2023-04-15T00:15:18;4.07;;;3.27;;
68583;SDS011;55557;49.220;11.150;2023-04-15T00:17:44;5.73;;;3.20;;
68583;SDS011;55557;49.220;11.150;2023-04-15T00:20:11;4.40;;;3.50;;
68583;SDS011;55557;49.220;11.150;2023-04-15T00:22:37;3.57;;;3.00;;
68583;SDS011;55557;49.220;11.150;2023-04-15T00:25:03;3.47;;;3.07;;
68583;SDS011;55557;49.220;11.150;2023-04-15T00:27:29;3.97;;;3.33;;
68583;SDS011;55557;49.220;11.150;2023-04-15T00:29:55;3.60;;;2.80;;
68583;SDS011;55557;49.220;11.150;2023-04-15T00:32:22;3.97;;;3.20;;
68583;SDS011;55557;49.220;11.150;2023-04-15T00:34:48;3.93;;;3.53;;
68583;SDS011;55557;49.220;11.150;2023-04-15T00:37:14;6.93;;;4.30;;
68583;SDS011;55557;49.220;11.150;2023-04-15T00:39:40;4.63;;;3.17;;
68583;SDS011;55557;49.220;11.150;2023-04-15T00:42:06;4.03;;;3.53;;
68583;SDS011;55557;49.220;11.150;2023-04-15T00:44:33;5.67;;;3.93;;
68583;SDS011;55557;49.220;11.150;2023-04-15T00:46:59;4.30;;;3.90;;
68583;SDS011;55557;49.220;11.150;2023-04-15T00:49:26;6.17;;;3.63;;
68583;SDS011;55557;49.220;11.150;2023-04-15T00:51:53;4.77;;;3.50;;
68583;SDS011;55557;49.220;11.150;2023-04-15T00:54:20;4.57;;;3.73;;
68583;SDS011;55557;49.220;11.150;2023-04-15T00:56:46;5.53;;;4.03;;
68583;SDS011;55557;49.220;11.150;2023-04-15T00:59:12;4.53;;;4.13;;
68583;SDS011;55557;49.220;11.150;2023-04-15T01:01:39;6.20;;;3.80;;
68583;SDS011;55557;49.220;11.150;2023-04-15T01:04:05;4.70;;;3.90;;
68583;SDS011;55557;49.220;11.150;2023-04-15T01:06:34;4.43;;;3.53;;
68583;SDS011;55557;49.220;11.150;2023-04-15T01:09:00;4.30;;;3.47;;
68583;SDS011;55557;49.220;11.150;2023-04-15T01:11:29;7.33;;;3.97;;
68583;SDS011;55557;49.220;11.150;2023-04-15T01:13:55;5.83;;;3.80;;
68583;SDS011;55557;49.220;11.150;2023-04-15T01:16:23;6.47;;;3.90;;
68583;SDS011;55557;49.220;11.150;2023-04-15T01:18:49;4.33;;;3.70;;
68583;SDS011;55557;49.220;11.150;2023-04-15T01:21:16;4.57;;;3.70;;
68583;SDS011;55557;49.220;11.150;2023-04-15T01:23:43;5.27;;;4.00;;
68583;SDS011;55557;49.220;11.150;2023-04-15T01:26:11;5.73;;;4.07;;
68583;SDS011;55557;49.220;11.150;2023-04-15T01:28:38;5.00;;;3.60;;
68583;SDS011;55557;49.220;11.150;2023-04-15T01:31:05;5.10;;;4.03;;
68583;SDS011;55557;49.220;11.150;2023-04-15T01:33:31;6.23;;;4.07;;
68583;SDS011;55557;49.220;11.150;2023-04-15T01:35:57;4.77;;;3.90;;
68583;SDS011;55557;49.220;11.150;2023-04-15T01:38:24;4.97;;;4.03;;
68583;SDS011;55557;49.220;11.150;2023-04-15T01:40:50;4.07;;;3.67;;
68583;SDS011;55557;49.220;11.150;2023-04-15T01:43:16;4.83;;;3.60;;
68583;SDS011;55557;49.220;11.150;2023-04-15T01:45:43;5.07;;;3.50;;
68583;SDS011;55557;49.220;11.150;2023-04-15T01:48:09;4.07;;;3.27;;
68583;SDS011;55557;49.220;11.150;2023-04-15T01:50:35;4.67;;;3.60;;
68583;SDS011;55557;49.220;11.150;2023-04-15T01:53:02;5.30;;;3.83;;
68583;SDS011;55557;49.220;11.150;2023-04-15T01:55:28;6.50;;;3.70;;
68583;SDS011;55557;49.220;11.150;2023-04-15T01:57:54;6.87;;;3.83;;
68583;SDS011;55557;49.220;11.150;2023-04-15T02:00:21;8.93;;;3.90;;
68583;SDS011;55557;49.220;11.150;2023-04-15T02:02:47;4.87;;;4.00;;
68583;SDS011;55557;49.220;11.150;2023-04-15T02:05:13;5.57;;;3.80;;
68583;SDS011;55557;49.220;11.150;2023-04-15T02:07:40;4.67;;;3.87;;
68583;SDS011;55557;49.220;11.150;2023-04-15T02:10:07;3.83;;;3.20;;
68583;SDS011;55557;49.220;11.150;2023-04-15T02:12:34;7.37;;;4.10;;
68583;SDS011;55557;49.220;11.150;2023-04-15T02:15:00;5.57;;;3.73;;
68583;SDS011;55557;49.220;11.150;2023-04-15T02:17:26;4.80;;;3.90;;
68583;SDS011;55557;49.220;11.150;2023-04-15T02:19:52;5.53;;;4.13;;
68583;SDS011;55557;49.220;11.150;2023-04-15T02:22:18;4.70;;;3.70;;
68583;SDS011;55557;49.220;11.150;2023-04-15T02:24:44;4.17;;;3.63;;
68583;SDS011;55557;49.220;11.150;2023-04-15T02:27:14;5.50;;;3.47;;
68583;SDS011;55557;49.220;11.150;2023-04-15T02:29:42;5.67;;;3.33;;
68583;SDS011;55557;49.220;11.150;2023-04-15T02:32:08;5.43;;;3.87;;
68583;SDS011;55557;49.220;11.150;2023-04-15T02:34:35;5.17;;;4.00;;
68583;SDS011;55557;49.220;11.150;2023-04-15T02:37:05;3.37;;;3.00;;
68583;SDS011;55557;49.220;11.150;2023-04-15T02:39:31;3.73;;;3.27;;
68583;SDS011;55557;49.220;11.150;2023-04-15T02:41:58;3.63;;;3.27;;
68583;SDS011;55557;49.220;11.150;2023-04-15T02:44:25;4.67;;;3.20;;
68583;SDS011;55557;49.220;11.150;2023-04-15T02:46:51;4.40;;;3.40;;
68583;SDS011;55557;49.220;11.150;2023-04-15T02:49:18;4.27;;;3.40;;
68583;SDS011;55557;49.220;11.150;2023-04-15T02:51:44;4.07;;;3.07;;
68583;SDS011;55557;49.220;11.150;2023-04-15T02:54:20;3.77;;;2.77;;
68583;SDS011;55557;49.220;11.150;2023-04-15T02:56:47;3.53;;;2.87;;
68583;SDS011;55557;49.220;11.150;2023-04-15T02:59:13;3.37;;;3.03;;
68583;SDS011;55557;49.220;11.150;2023-04-15T03:01:39;4.23;;;2.83;;
68583;SDS011;55557;49.220;11.150;2023-04-15T03:04:05;3.97;;;3.27;;
68583;SDS011;55557;49.220;11.150;2023-04-15T03:06:33;3.43;;;2.63;;
68583;SDS011;55557;49.220;11.150;2023-04-15T03:08:58;3.47;;;2.47;;
68583;SDS011;55557;49.220;11.150;2023-04-15T03:11:26;3.07;;;2.70;;
68583;SDS011;55557;49.220;11.150;2023-04-15T03:13:52;5.03;;;3.50;;
68583;SDS011;55557;49.220;11.150;2023-04-15T03:16:18;4.40;;;2.83;;
68583;SDS011;55557;49.220;11.150;2023-04-15T03:18:44;3.90;;;2.87;;
68583;SDS011;55557;49.220;11.150;2023-04-15T03:21:10;3.90;;;3.50;;
68583;SDS011;55557;49.220;11.150;2023-04-15T03:23:36;3.57;;;3.07;;
68583;SDS011;55557;49.220;11.150;2023-04-15T03:26:02;3.93;;;3.30;;
68583;SDS011;55557;49.220;11.150;2023-04-15T03:28:28;5.13;;;2.97;;
68583;SDS011;55557;49.220;11.150;2023-04-15T03:30:55;4.63;;;3.07;;
68583;SDS011;55557;49.220;11.150;2023-04-15T03:33:21;5.87;;;3.50;;
68583;SDS011;55557;49.220;11.150;2023-04-15T03:35:47;4.17;;;3.20;;
68583;SDS011;55557;49.220;11.150;2023-04-15T03:38:13;3.93;;;3.07;;
68583;SDS011;55557;49.220;11.150;2023-04-15T03:40:40;4.10;;;3.30;;
68583;SDS011;55557;49.220;11.150;2023-04-15T03:43:06;4.37;;;3.13;;
68583;SDS011;55557;49.220;11.150;2023-04-15T03:45:35;5.47;;;3.30;;
68583;SDS011;55557;49.220;11.150;2023-04-15T03:48:01;4.17;;;3.20;;
68583;SDS011;55557;49.220;11.150;2023-04-15T03:50:27;4.83;;;2.80;;
68583;SDS011;55557;49.220;11.150;2023-04-15T03:52:53;4.20;;;3.00;;
68583;SDS011;55557;49.220;11.150;2023-04-15T03:55:19;4.00;;;3.20;;
68583;SDS011;55557;49.220;11.150;2023-04-15T03:57:45;3.83;;;3.13;;
68583;SDS011;55557;49.220;11.150;2023-04-15T04:00:11;4.47;;;3.10;;
68583;SDS011;55557;49.220;11.150;2023-04-15T04:02:37;5.00;;;3.10;;
68583;SDS011;55557;49.220;11.150;2023-04-15T04:05:03;4.03;;;3.10;;
68583;SDS011;55557;49.220;11.150;2023-04-15T04:07:29;3.90;;;3.10;;
68583;SDS011;55557;49.220;11.150;2023-04-15T04:09:56;3.93;;;2.77;;
68583;SDS011;55557;49.220;11.150;2023-04-15T04:12:22;5.10;;;3.07;;
68583;SDS011;55557;49.220;11.150;2023-04-15T04:14:48;5.57;;;3.57;;
68583;SDS011;55557;49.220;11.150;2023-04-15T04:17:14;3.73;;;3.20;;
68583;SDS011;55557;49.220;11.150;2023-04-15T04:19:40;4.67;;;3.23;;
68583;SDS011;55557;49.220;11.150;2023-04-15T04:22:06;5.13;;;3.90;;
68583;SDS011;55557;49.220;11.150;2023-04-15T04:24:32;7.27;;;3.70;;
68583;SDS011;55557;49.220;11.150;2023-04-15T04:26:58;5.03;;;3.80;;
68583;SDS011;55557;49.220;11.150;2023-04-15T04:29:24;6.20;;;4.87;;
68583;SDS011;55557;49.220;11.150;2023-04-15T04:31:50;5.43;;;4.67;;
68583;SDS011;55557;49.220;11.150;2023-04-15T04:34:16;5.63;;;4.93;;
68583;SDS011;55557;49.220;11.150;2023-04-15T04:36:42;5.83;;;4.03;;
68583;SDS011;55557;49.220;11.150;2023-04-15T04:39:08;6.13;;;5.00;;
68583;SDS011;55557;49.220;11.150;2023-04-15T04:41:34;5.47;;;3.80;;
68583;SDS011;55557;49.220;11.150;2023-04-15T04:44:00;4.60;;;3.90;;
68583;SDS011;55557;49.220;11.150;2023-04-15T04:46:27;6.07;;;4.43;;
68583;SDS011;55557;49.220;11.150;2023-04-15T04:48:53;5.93;;;5.17;;
68583;SDS011;55557;49.220;11.150;2023-04-15T04:51:19;5.23;;;4.37;;
68583;SDS011;55557;49.220;11.150;2023-04-15T04:53:45;6.87;;;4.63;;
68583;SDS011;55557;49.220;11.150;2023-04-15T04:56:11;8.43;;;5.03;;
68583;SDS011;55557;49.220;11.150;2023-04-15T04:58:37;6.13;;;4.57;;
68583;SDS011;55557;49.220;11.150;2023-04-15T05:01:03;5.37;;;4.43;;
68583;SDS011;55557;49.220;11.150;2023-04-15T05:03:29;5.83;;;4.50;;
68583;SDS011;55557;49.220;11.150;2023-04-15T05:05:55;5.87;;;4.60;;
68583;SDS011;55557;49.220;11.150;2023-04-15T05:08:22;5.87;;;4.40;;
68583;SDS011;55557;49.220;11.150;2023-04-15T05:10:48;6.20;;;4.37;;
68583;SDS011;55557;49.220;11.150;2023-04-15T05:13:14;6.33;;;4.10;;
68583;SDS011;55557;49.220;11.150;2023-04-15T05:15:40;5.43;;;4.27;;
68583;SDS011;55557;49.220;11.150;2023-04-15T05:18:07;3.90;;;3.50;;
68583;SDS011;55557;49.220;11.150;2023-04-15T05:20:33;6.03;;;4.10;;
68583;SDS011;55557;49.220;11.150;2023-04-15T05:22:59;7.53;;;4.60;;
68583;SDS011;55557;49.220;11.150;2023-04-15T05:25:25;6.93;;;5.00;;
68583;SDS011;55557;49.220;11.150;2023-04-15T05:27:51;5.40;;;4.10;;
68583;SDS011;55557;49.220;11.150;2023-04-15T05:30:17;7.43;;;4.80;;
68583;SDS011;55557;49.220;11.150;2023-04-15T05:32:43;5.67;;;4.17;;
68583;SDS011;55557;49.220;11.150;2023-04-15T05:35:09;6.17;;;4.03;;
68583;SDS011;55557;49.220;11.150;2023-04-15T05:37:35;5.07;;;4.37;;
68583;SDS011;55557;49.220;11.150;2023-04-15T05:40:01;4.43;;;3.60;;
68583;SDS011;55557;49.220;11.150;2023-04-15T05:42:28;6.73;;;4.20;;
68583;SDS011;55557;49.220;11.150;2023-04-15T05:44:54;6.57;;;4.27;;
68583;SDS011;55557;49.220;11.150;2023-04-15T05:47:21;7.73;;;5.03;;
68583;SDS011;55557;49.220;11.150;2023-04-15T05:49:47;5.77;;;4.63;;
68583;SDS011;55557;49.220;11.150;2023-04-15T05:52:13;11.37;;;7.07;;
68583;SDS011;55557;49.220;11.150;2023-04-15T05:54:39;6.30;;;5.03;;
68583;SDS011;55557;49.220;11.150;2023-04-15T05:57:05;6.50;;;4.30;;
68583;SDS011;55557;49.220;11.150;2023-04-15T05:59:32;7.03;;;4.77;;
68583;SDS011;55557;49.220;11.150;2023-04-15T06:01:58;7.57;;;5.30;;
68583;SDS011;55557;49.220;11.150;2023-04-15T06:04:24;7.33;;;5.20;;
68583;SDS011;55557;49.220;11.150;2023-04-15T06:06:50;6.37;;;4.53;;
68583;SDS011;55557;49.220;11.150;2023-04-15T06:09:16;6.37;;;3.97;;
68583;SDS011;55557;49.220;11.150;2023-04-15T06:11:42;8.30;;;5.17;;
68583;SDS011;55557;49.220;11.150;2023-04-15T06:14:08;6.33;;;4.97;;
68583;SDS011;55557;49.220;11.150;2023-04-15T06:16:34;7.23;;;4.47;;
68583;SDS011;55557;49.220;11.150;2023-04-15T06:19:00;6.43;;;4.90;;
68583;SDS011;55557;49.220;11.150;2023-04-15T06:21:26;6.73;;;4.80;;
68583;SDS011;55557;49.220;11.150;2023-04-15T06:23:52;6.83;;;4.97;;
68583;SDS011;55557;49.220;11.150;2023-04-15T06:26:19;19.87;;;13.33;;
68583;SDS011;55557;49.220;11.150;2023-04-15T06:28:45;16.30;;;10.37;;
68583;SDS011;55557;49.220;11.150;2023-04-15T06:31:11;15.90;;;11.43;;
68583;SDS011;55557;49.220;11.150;2023-04-15T06:33:37;7.80;;;6.17;;
68583;SDS011;55557;49.220;11.150;2023-04-15T06:36:03;10.13;;;6.63;;
68583;SDS011;55557;49.220;11.150;2023-04-15T06:38:29;11.73;;;6.10;;
68583;SDS011;55557;49.220;11.150;2023-04-15T06:40:55;6.75;;;5.30;;
68583;SDS011;55557;49.220;11.150;2023-04-15T06:43:21;8.23;;;7.22;;
68583;SDS011;55557;49.220;11.150;2023-04-15T06:45:48;7.70;;;5.10;;
68583;SDS011;55557;49.220;11.150;2023-04-15T06:48:14;14.63;;;7.80;;
68583;SDS011;55557;49.220;11.150;2023-04-15T06:50:41;9.10;;;7.33;;
68583;SDS011;55557;49.220;11.150;2023-04-15T06:53:07;6.93;;;4.87;;
68583;SDS011;55557;49.220;11.150;2023-04-15T06:55:33;7.57;;;5.13;;
68583;SDS011;55557;49.220;11.150;2023-04-15T06:57:59;6.93;;;5.07;;
68583;SDS011;55557;49.220;11.150;2023-04-15T07:00:26;4.97;;;4.07;;
68583;SDS011;55557;49.220;11.150;2023-04-15T07:02:52;10.07;;;7.87;;
68583;SDS011;55557;49.220;11.150;2023-04-15T07:05:19;9.37;;;6.77;;
68583;SDS011;55557;49.220;11.150;2023-04-15T07:07:45;6.00;;;4.53;;
68583;SDS011;55557;49.220;11.150;2023-04-15T07:10:11;8.60;;;6.43;;
68583;SDS011;55557;49.220;11.150;2023-04-15T07:12:39;5.67;;;5.07;;
68583;SDS011;55557;49.220;11.150;2023-04-15T07:15:05;6.47;;;4.37;;
68583;SDS011;55557;49.220;11.150;2023-04-15T07:17:31;5.53;;;4.27;;
68583;SDS011;55557;49.220;11.150;2023-04-15T07:19:58;4.40;;;3.90;;
68583;SDS011;55557;49.220;11.150;2023-04-15T07:22:24;6.37;;;4.30;;
68583;SDS011;55557;49.220;11.150;2023-04-15T07:24:50;5.63;;;4.03;;
68583;SDS011;55557;49.220;11.150;2023-04-15T07:27:16;5.83;;;3.83;;
68583;SDS011;55557;49.220;11.150;2023-04-15T07:29:42;5.57;;;3.97;;
68583;SDS011;55557;49.220;11.150;2023-04-15T07:32:08;5.00;;;4.03;;
68583;SDS011;55557;49.220;11.150;2023-04-15T07:34:34;6.00;;;3.73;;
68583;SDS011;55557;49.220;11.150;2023-04-15T07:37:01;5.80;;;4.97;;
68583;SDS011;55557;49.220;11.150;2023-04-15T07:39:27;4.53;;;3.63;;
68583;SDS011;55557;49.220;11.150;2023-04-15T07:41:53;4.80;;;4.27;;
68583;SDS011;55557;49.220;11.150;2023-04-15T07:44:20;5.00;;;4.07;;
68583;SDS011;55557;49.220;11.150;2023-04-15T07:46:46;5.73;;;3.90;;
68583;SDS011;55557;49.220;11.150;2023-04-15T07:49:12;5.47;;;3.80;;
68583;SDS011;55557;49.220;11.150;2023-04-15T07:51:38;7.17;;;4.23;;
68583;SDS011;55557;49.220;11.150;2023-04-15T07:54:04;5.07;;;4.23;;
68583;SDS011;55557;49.220;11.150;2023-04-15T07:56:30;9.53;;;8.63;;
68583;SDS011;55557;49.220;11.150;2023-04-15T07:58:56;6.20;;;5.60;;
68583;SDS011;55557;49.220;11.150;2023-04-15T08:01:22;5.03;;;3.67;;
68583;SDS011;55557;49.220;11.150;2023-04-15T08:03:48;6.90;;;4.77;;
68583;SDS011;55557;49.220;11.150;2023-04-15T08:06:14;7.73;;;4.50;;
68583;SDS011;55557;49.220;11.150;2023-04-15T08:08:40;5.80;;;4.90;;
68583;SDS011;55557;49.220;11.150;2023-04-15T08:11:07;6.57;;;4.20;;
68583;SDS011;55557;49.220;11.150;2023-04-15T08:13:33;5.80;;;4.53;;
68583;SDS011;55557;49.220;11.150;2023-04-15T08:18:44;6.07;;;4.73;;
68583;SDS011;55557;49.220;11.150;2023-04-15T08:21:11;4.97;;;4.30;;
68583;SDS011;55557;49.220;11.150;2023-04-15T08:23:37;4.40;;;3.40;;
68583;SDS011;55557;49.220;11.150;2023-04-15T08:26:03;5.90;;;3.50;;
68583;SDS011;55557;49.220;11.150;2023-04-15T08:28:29;5.80;;;4.43;;
68583;SDS011;55557;49.220;11.150;2023-04-15T08:30:55;3.90;;;3.07;;
68583;SDS011;55557;49.220;11.150;2023-04-15T08:33:21;4.00;;;3.00;;
68583;SDS011;55557;49.220;11.150;2023-04-15T08:35:48;5.63;;;3.60;;
68583;SDS011;55557;49.220;11.150;2023-04-15T08:38:14;4.97;;;2.67;;
68583;SDS011;55557;49.220;11.150;2023-04-15T08:40:41;3.47;;;2.97;;
68583;SDS011;55557;49.220;11.150;2023-04-15T08:43:08;4.37;;;3.90;;
68583;SDS011;55557;49.220;11.150;2023-04-15T08:45:35;6.33;;;3.70;;
68583;SDS011;55557;49.220;11.150;2023-04-15T08:48:03;5.47;;;4.97;;
68583;SDS011;55557;49.220;11.150;2023-04-15T08:50:30;4.00;;;3.40;;
68583;SDS011;55557;49.220;11.150;2023-04-15T08:53:00;4.40;;;3.10;;
68583;SDS011;55557;49.220;11.150;2023-04-15T08:55:27;4.13;;;3.60;;
68583;SDS011;55557;49.220;11.150;2023-04-15T08:57:54;3.23;;;2.70;;
68583;SDS011;55557;49.220;11.150;2023-04-15T09:00:21;3.47;;;3.10;;
68583;SDS011;55557;49.220;11.150;2023-04-15T09:02:47;3.97;;;3.13;;
68583;SDS011;55557;49.220;11.150;2023-04-15T09:05:14;5.37;;;3.60;;
68583;SDS011;55557;49.220;11.150;2023-04-15T09:07:40;3.70;;;3.30;;
68583;SDS011;55557;49.220;11.150;2023-04-15T09:10:06;3.70;;;3.13;;
68583;SDS011;55557;49.220;11.150;2023-04-15T09:12:33;3.80;;;3.27;;
68583;SDS011;55557;49.220;11.150;2023-04-15T09:15:00;3.77;;;2.80;;
68583;SDS011;55557;49.220;11.150;2023-04-15T09:17:27;3.97;;;3.23;;
68583;SDS011;55557;49.220;11.150;2023-04-15T09:20:09;3.63;;;3.17;;
68583;SDS011;55557;49.220;11.150;2023-04-15T09:22:36;2.83;;;2.43;;
68583;SDS011;55557;49.220;11.150;2023-04-15T09:25:03;4.23;;;2.63;;
68583;SDS011;55557;49.220;11.150;2023-04-15T09:27:29;5.30;;;2.57;;
68583;SDS011;55557;49.220;11.150;2023-04-15T09:29:55;5.50;;;3.03;;
68583;SDS011;55557;49.220;11.150;2023-04-15T09:32:21;4.30;;;3.07;;
68583;SDS011;55557;49.220;11.150;2023-04-15T09:34:48;4.57;;;2.70;;
68583;SDS011;55557;49.220;11.150;2023-04-15T09:37:14;3.70;;;2.67;;
68583;SDS011;55557;49.220;11.150;2023-04-15T09:39:48;2.87;;;2.57;;
68583;SDS011;55557;49.220;11.150;2023-04-15T09:42:14;2.97;;;2.40;;
68583;SDS011;55557;49.220;11.150;2023-04-15T09:44:41;3.10;;;2.80;;
68583;SDS011;55557;49.220;11.150;2023-04-15T09:47:08;2.67;;;2.13;;
68583;SDS011;55557;49.220;11.150;2023-04-15T09:49:34;3.30;;;2.03;;
68583;SDS011;55557;49.220;11.150;2023-04-15T09:52:00;2.20;;;2.00;;
68583;SDS011;55557;49.220;11.150;2023-04-15T09:54:33;2.80;;;1.67;;
68583;SDS011;55557;49.220;11.150;2023-04-15T09:57:03;2.73;;;1.70;;
68583;SDS011;55557;49.220;11.150;2023-04-15T09:59:30;2.77;;;2.00;;
68583;SDS011;55557;49.220;11.150;2023-04-15T10:01:56;5.67;;;1.63;;
68583;SDS011;55557;49.220;11.150;2023-04-15T10:04:22;3.27;;;2.17;;
68583;SDS011;55557;49.220;11.150;2023-04-15T10:06:48;1.90;;;1.63;;
68583;SDS011;55557;49.220;11.150;2023-04-15T10:09:14;2.17;;;1.97;;
68583;SDS011;55557;49.220;11.150;2023-04-15T10:11:41;4.50;;;1.90;;
68583;SDS011;55557;49.220;11.150;2023-04-15T10:14:08;1.43;;;1.30;;
68583;SDS011;55557;49.220;11.150;2023-04-15T10:16:35;1.60;;;1.30;;
68583;SDS011;55557;49.220;11.150;2023-04-15T10:19:03;3.73;;;1.90;;
68583;SDS011;55557;49.220;11.150;2023-04-15T10:21:30;1.40;;;1.20;;
68583;SDS011;55557;49.220;11.150;2023-04-15T10:23:57;2.17;;;1.47;;
68583;SDS011;55557;49.220;11.150;2023-04-15T10:26:25;1.63;;;1.37;;
68583;SDS011;55557;49.220;11.150;2023-04-15T10:28:52;1.27;;;1.07;;
68583;SDS011;55557;49.220;11.150;2023-04-15T10:31:18;1.30;;;1.20;;
68583;SDS011;55557;49.220;11.150;2023-04-15T10:33:44;3.23;;;1.80;;
68583;SDS011;55557;49.220;11.150;2023-04-15T10:36:11;1.17;;;1.07;;
68583;SDS011;55557;49.220;11.150;2023-04-15T10:41:26;1.87;;;1.30;;
68583;SDS011;55557;49.220;11.150;2023-04-15T10:46:21;2.27;;;1.40;;
68583;SDS011;55557;49.220;11.150;2023-04-15T10:48:48;1.37;;;1.17;;
68583;SDS011;55557;49.220;11.150;2023-04-15T10:51:14;1.50;;;1.20;;
68583;SDS011;55557;49.220;11.150;2023-04-15T10:53:41;4.10;;;1.37;;
68583;SDS011;55557;49.220;11.150;2023-04-15T10:56:07;1.60;;;1.50;;
68583;SDS011;55557;49.220;11.150;2023-04-15T10:58:41;1.20;;;1.10;;
68583;SDS011;55557;49.220;11.150;2023-04-15T11:01:07;2.10;;;1.10;;
68583;SDS011;55557;49.220;11.150;2023-04-15T11:03:37;1.57;;;1.47;;
68583;SDS011;55557;49.220;11.150;2023-04-15T11:06:04;2.50;;;1.30;;
68583;SDS011;55557;49.220;11.150;2023-04-15T11:08:52;2.07;;;1.43;;
68583;SDS011;55557;49.220;11.150;2023-04-15T11:11:17;1.40;;;1.10;;
68583;SDS011;55557;49.220;11.150;2023-04-15T11:13:49;1.93;;;1.50;;
68583;SDS011;55557;49.220;11.150;2023-04-15T11:16:16;2.47;;;2.00;;
68583;SDS011;55557;49.220;11.150;2023-04-15T11:18:52;2.37;;;1.70;;
68583;SDS011;55557;49.220;11.150;2023-04-15T11:21:18;1.87;;;1.73;;
68583;SDS011;55557;49.220;11.150;2023-04-15T11:23:44;4.27;;;1.80;;
68583;SDS011;55557;49.220;11.150;2023-04-15T11:26:11;2.37;;;2.17;;
68583;SDS011;55557;49.220;11.150;2023-04-15T11:28:37;2.97;;;1.83;;
68583;SDS011;55557;49.220;11.150;2023-04-15T11:31:05;4.20;;;2.17;;
68583;SDS011;55557;49.220;11.150;2023-04-15T11:33:32;3.20;;;1.90;;
68583;SDS011;55557;49.220;11.150;2023-04-15T11:35:58;1.83;;;1.30;;
68583;SDS011;55557;49.220;11.150;2023-04-15T11:38:24;1.13;;;1.03;;
68583;SDS011;55557;49.220;11.150;2023-04-15T11:40:50;1.20;;;1.10;;
68583;SDS011;55557;49.220;11.150;2023-04-15T11:43:20;2.47;;;1.50;;
68583;SDS011;55557;49.220;11.150;2023-04-15T11:45:56;2.87;;;1.40;;
68583;SDS011;55557;49.220;11.150;2023-04-15T11:48:23;2.00;;;1.70;;
68583;SDS011;55557;49.220;11.150;2023-04-15T11:50:53;1.63;;;1.20;;
68583;SDS011;55557;49.220;11.150;2023-04-15T11:53:19;5.00;;;2.07;;
68583;SDS011;55557;49.220;11.150;2023-04-15T11:55:46;1.90;;;1.50;;
68583;SDS011;55557;49.220;11.150;2023-04-15T11:58:14;2.83;;;2.10;;
68583;SDS011;55557;49.220;11.150;2023-04-15T12:00:41;4.43;;;1.30;;
68583;SDS011;55557;49.220;11.150;2023-04-15T12:11:13;1.30;;;1.20;;
68583;SDS011;55557;49.220;11.150;2023-04-15T12:13:42;1.40;;;1.00;;
68583;SDS011;55557;49.220;11.150;2023-04-15T12:16:08;2.07;;;1.90;;
68583;SDS011;55557;49.220;11.150;2023-04-15T12:18:38;2.03;;;1.50;;
68583;SDS011;55557;49.220;11.150;2023-04-15T12:21:10;2.60;;;2.37;;
68583;SDS011;55557;49.220;11.150;2023-04-15T12:23:37;2.37;;;2.10;;
68583;SDS011;55557;49.220;11.150;2023-04-15T12:26:04;1.83;;;1.73;;
68583;SDS011;55557;49.220;11.150;2023-04-15T12:28:33;1.57;;;1.40;;
68583;SDS011;55557;49.220;11.150;2023-04-15T12:31:05;2.87;;;2.30;;
68583;SDS011;55557;49.220;11.150;2023-04-15T12:33:32;3.60;;;2.60;;
68583;SDS011;55557;49.220;11.150;2023-04-15T12:35:58;1.63;;;1.43;;
68583;SDS011;55557;49.220;11.150;2023-04-15T12:38:25;3.37;;;2.17;;
68583;SDS011;55557;49.220;11.150;2023-04-15T12:40:51;2.87;;;2.60;;
68583;SDS011;55557;49.220;11.150;2023-04-15T12:43:17;2.70;;;2.03;;
68583;SDS011;55557;49.220;11.150;2023-04-15T12:45:42;2.30;;;2.00;;
68583;SDS011;55557;49.220;11.150;2023-04-15T12:48:08;2.40;;;2.20;;
68583;SDS011;55557;49.220;11.150;2023-04-15T12:50:35;1.93;;;1.40;;
68583;SDS011;55557;49.220;11.150;2023-04-15T12:53:01;2.10;;;1.90;;
68583;SDS011;55557;49.220;11.150;2023-04-15T12:55:28;3.63;;;2.67;;
68583;SDS011;55557;49.220;11.150;2023-04-15T12:57:54;1.97;;;1.83;;
68583;SDS011;55557;49.220;11.150;2023-04-15T13:00:20;1.50;;;1.30;;
68583;SDS011;55557;49.220;11.150;2023-04-15T13:02:48;3.80;;;2.00;;
68583;SDS011;55557;49.220;11.150;2023-04-15T13:05:14;1.70;;;1.40;;
68583;SDS011;55557;49.220;11.150;2023-04-15T13:07:41;4.67;;;1.60;;
68583;SDS011;55557;49.220;11.150;2023-04-15T13:10:07;1.70;;;1.60;;
68583;SDS011;55557;49.220;11.150;2023-04-15T13:12:33;1.83;;;1.50;;
68583;SDS011;55557;49.220;11.150;2023-04-15T13:15:01;2.97;;;1.77;;
68583;SDS011;55557;49.220;11.150;2023-04-15T13:17:28;4.43;;;2.67;;
68583;SDS011;55557;49.220;11.150;2023-04-15T13:19:54;2.40;;;1.90;;
68583;SDS011;55557;49.220;11.150;2023-04-15T13:22:21;3.20;;;2.90;;
68583;SDS011;55557;49.220;11.150;2023-04-15T13:24:47;1.73;;;1.40;;
68583;SDS011;55557;49.220;11.150;2023-04-15T13:27:13;2.27;;;1.77;;
68583;SDS011;55557;49.220;11.150;2023-04-15T13:29:39;2.53;;;1.70;;
68583;SDS011;55557;49.220;11.150;2023-04-15T13:32:05;1.60;;;1.30;;
68583;SDS011;55557;49.220;11.150;2023-04-15T13:34:31;3.60;;;1.93;;
68583;SDS011;55557;49.220;11.150;2023-04-15T13:36:58;3.10;;;2.77;;
68583;SDS011;55557;49.220;11.150;2023-04-15T13:39:30;2.30;;;2.10;;
68583;SDS011;55557;49.220;11.150;2023-04-15T13:41:56;1.67;;;1.53;;
68583;SDS011;55557;49.220;11.150;2023-04-15T13:44:22;2.73;;;2.10;;
68583;SDS011;55557;49.220;11.150;2023-04-15T13:46:48;3.93;;;2.03;;
68583;SDS011;55557;49.220;11.150;2023-04-15T13:49:14;1.90;;;1.70;;
68583;SDS011;55557;49.220;11.150;2023-04-15T13:51:40;4.20;;;1.93;;
68583;SDS011;55557;49.220;11.150;2023-04-15T13:54:06;2.23;;;1.80;;
68583;SDS011;55557;49.220;11.150;2023-04-15T13:56:32;3.70;;;3.37;;
68583;SDS011;55557;49.220;11.150;2023-04-15T13:58:58;2.53;;;2.33;;
68583;SDS011;55557;49.220;11.150;2023-04-15T14:01:26;2.10;;;1.90;;
68583;SDS011;55557;49.220;11.150;2023-04-15T14:03:52;2.57;;;1.77;;
68583;SDS011;55557;49.220;11.150;2023-04-15T14:06:18;1.43;;;1.20;;
68583;SDS011;55557;49.220;11.150;2023-04-15T14:08:45;4.30;;;2.70;;
68583;SDS011;55557;49.220;11.150;2023-04-15T14:11:11;2.47;;;2.23;;
68583;SDS011;55557;49.220;11.150;2023-04-15T14:13:37;1.83;;;1.60;;
68583;SDS011;55557;49.220;11.150;2023-04-15T14:16:03;3.67;;;2.60;;
68583;SDS011;55557;49.220;11.150;2023-04-15T14:18:29;3.10;;;2.17;;
68583;SDS011;55557;49.220;11.150;2023-04-15T14:20:55;4.40;;;3.70;;
68583;SDS011;55557;49.220;11.150;2023-04-15T14:23:22;2.63;;;2.43;;
68583;SDS011;55557;49.220;11.150;2023-04-15T14:25:48;3.27;;;2.60;;
68583;SDS011;55557;49.220;11.150;2023-04-15T14:28:15;4.27;;;3.47;;
68583;SDS011;55557;49.220;11.150;2023-04-15T14:30:41;4.10;;;3.80;;
68583;SDS011;55557;49.220;11.150;2023-04-15T14:33:07;2.50;;;2.30;;
68583;SDS011;55557;49.220;11.150;2023-04-15T14:35:33;2.90;;;2.60;;
68583;SDS011;55557;49.220;11.150;2023-04-15T14:37:59;2.97;;;2.03;;
68583;SDS011;55557;49.220;11.150;2023-04-15T14:40:25;2.63;;;2.27;;
68583;SDS011;55557;49.220;11.150;2023-04-15T14:42:51;2.77;;;2.40;;
68583;SDS011;55557;49.220;11.150;2023-04-15T14:45:20;4.10;;;2.23;;